Terminal Aerodrome Forecast
Issued by NWS

Home | Current Version | Previous Version | Text Only | Print | Product List | Glossary Off
Versions: 1 2 3 4 5 6 7 8 9 10 11 12 13 14 15 16 17 18 19 20

000
FTUS43 KBIS 271018 AAB
TAFMOT
TAF AMD
KMOT 271018Z 2710/2806 32004KT 5SM BR BKN004
     FM271300 33005KT P6SM -SHRA OVC015
     FM271700 02007KT P6SM OVC015
     FM272100 04006KT P6SM BKN035=

USA.gov is the U.S. government's official web portal to all federal, state and local government web resources and services.